sensor_id;sensor_type;location;lat;lon;timestamp;temperature;humidity
4509;DHT22;2267;48.816;9.230;2023-12-28T00:02:12;8.80;96.60
4509;DHT22;2267;48.816;9.230;2023-12-28T00:04:40;8.80;96.70
4509;DHT22;2267;48.816;9.230;2023-12-28T00:07:07;8.80;96.70
4509;DHT22;2267;48.816;9.230;2023-12-28T00:09:34;8.80;96.90
4509;DHT22;2267;48.816;9.230;2023-12-28T00:12:01;8.80;97.20
4509;DHT22;2267;48.816;9.230;2023-12-28T00:14:28;8.70;97.30
4509;DHT22;2267;48.816;9.230;2023-12-28T00:16:55;8.70;97.60
4509;DHT22;2267;48.816;9.230;2023-12-28T00:19:21;9.40;97.70
4509;DHT22;2267;48.816;9.230;2023-12-28T00:21:48;8.70;97.30
4509;DHT22;2267;48.816;9.230;2023-12-28T00:24:16;8.70;96.60
4509;DHT22;2267;48.816;9.230;2023-12-28T00:26:43;8.70;95.70
4509;DHT22;2267;48.816;9.230;2023-12-28T00:29:10;8.80;95.40
4509;DHT22;2267;48.816;9.230;2023-12-28T00:31:37;8.80;94.90
4509;DHT22;2267;48.816;9.230;2023-12-28T00:34:04;8.80;94.90
4509;DHT22;2267;48.816;9.230;2023-12-28T00:36:31;8.80;95.30
4509;DHT22;2267;48.816;9.230;2023-12-28T00:38:59;8.80;95.70
4509;DHT22;2267;48.816;9.230;2023-12-28T00:41:25;8.80;95.70
4509;DHT22;2267;48.816;9.230;2023-12-28T00:43:52;8.80;95.60
4509;DHT22;2267;48.816;9.230;2023-12-28T00:46:19;8.80;95.30
4509;DHT22;2267;48.816;9.230;2023-12-28T00:48:46;8.90;95.40
4509;DHT22;2267;48.816;9.230;2023-12-28T00:51:13;8.90;95.40
4509;DHT22;2267;48.816;9.230;2023-12-28T00:53:40;8.90;95.20
4509;DHT22;2267;48.816;9.230;2023-12-28T00:56:07;8.90;95.40
4509;DHT22;2267;48.816;9.230;2023-12-28T00:58:39;8.90;95.90
4509;DHT22;2267;48.816;9.230;2023-12-28T01:01:06;8.90;96.20
4509;DHT22;2267;48.816;9.230;2023-12-28T01:03:33;8.90;95.90
4509;DHT22;2267;48.816;9.230;2023-12-28T01:05:59;8.80;95.70
4509;DHT22;2267;48.816;9.230;2023-12-28T01:08:26;8.80;95.70
4509;DHT22;2267;48.816;9.230;2023-12-28T01:10:53;8.90;95.80
4509;DHT22;2267;48.816;9.230;2023-12-28T01:13:20;8.80;95.80
4509;DHT22;2267;48.816;9.230;2023-12-28T01:15:47;8.80;95.90
4509;DHT22;2267;48.816;9.230;2023-12-28T01:18:14;8.80;96.30
4509;DHT22;2267;48.816;9.230;2023-12-28T01:20:42;8.80;96.50
4509;DHT22;2267;48.816;9.230;2023-12-28T01:23:08;8.70;96.50
4509;DHT22;2267;48.816;9.230;2023-12-28T01:25:35;8.70;96.60
4509;DHT22;2267;48.816;9.230;2023-12-28T01:28:03;8.70;97.00
4509;DHT22;2267;48.816;9.230;2023-12-28T01:30:31;8.60;96.50
4509;DHT22;2267;48.816;9.230;2023-12-28T01:32:57;8.60;96.50
4509;DHT22;2267;48.816;9.230;2023-12-28T01:35:24;8.60;96.80
4509;DHT22;2267;48.816;9.230;2023-12-28T01:37:51;8.60;96.70
4509;DHT22;2267;48.816;9.230;2023-12-28T01:40:18;8.50;96.80
4509;DHT22;2267;48.816;9.230;2023-12-28T01:42:45;8.50;97.00
4509;DHT22;2267;48.816;9.230;2023-12-28T01:45:12;8.50;97.10
4509;DHT22;2267;48.816;9.230;2023-12-28T01:47:40;8.50;97.30
4509;DHT22;2267;48.816;9.230;2023-12-28T01:50:07;8.40;97.10
4509;DHT22;2267;48.816;9.230;2023-12-28T01:52:34;8.40;97.10
4509;DHT22;2267;48.816;9.230;2023-12-28T01:55:02;8.40;97.10
4509;DHT22;2267;48.816;9.230;2023-12-28T01:57:30;8.30;97.10
4509;DHT22;2267;48.816;9.230;2023-12-28T01:59:57;8.30;97.40
4509;DHT22;2267;48.816;9.230;2023-12-28T02:02:28;8.20;97.60
4509;DHT22;2267;48.816;9.230;2023-12-28T02:04:55;8.20;97.30
4509;DHT22;2267;48.816;9.230;2023-12-28T02:07:24;8.20;97.60
4509;DHT22;2267;48.816;9.230;2023-12-28T02:09:50;8.20;97.80
4509;DHT22;2267;48.816;9.230;2023-12-28T02:12:18;8.20;98.20
4509;DHT22;2267;48.816;9.230;2023-12-28T02:14:45;8.10;97.90
4509;DHT22;2267;48.816;9.230;2023-12-28T02:17:17;8.10;97.90
4509;DHT22;2267;48.816;9.230;2023-12-28T02:19:55;8.10;98.00
4509;DHT22;2267;48.816;9.230;2023-12-28T02:22:25;8.00;97.90
4509;DHT22;2267;48.816;9.230;2023-12-28T02:25:04;8.00;98.20
4509;DHT22;2267;48.816;9.230;2023-12-28T02:27:42;8.00;98.30
4509;DHT22;2267;48.816;9.230;2023-12-28T02:30:10;8.00;98.20
4509;DHT22;2267;48.816;9.230;2023-12-28T02:35:18;8.00;98.00
4509;DHT22;2267;48.816;9.230;2023-12-28T02:37:48;7.90;98.30
4509;DHT22;2267;48.816;9.230;2023-12-28T02:40:17;7.90;98.30
4509;DHT22;2267;48.816;9.230;2023-12-28T02:42:45;7.90;98.40
4509;DHT22;2267;48.816;9.230;2023-12-28T02:45:12;7.90;98.50
4509;DHT22;2267;48.816;9.230;2023-12-28T02:47:39;7.90;98.40
4509;DHT22;2267;48.816;9.230;2023-12-28T02:50:06;7.90;98.50
4509;DHT22;2267;48.816;9.230;2023-12-28T02:52:33;7.80;98.50
4509;DHT22;2267;48.816;9.230;2023-12-28T02:55:00;7.90;98.60
4509;DHT22;2267;48.816;9.230;2023-12-28T02:57:27;7.80;98.60
4509;DHT22;2267;48.816;9.230;2023-12-28T02:59:54;7.80;98.60
4509;DHT22;2267;48.816;9.230;2023-12-28T03:02:23;7.80;98.70
4509;DHT22;2267;48.816;9.230;2023-12-28T03:04:50;7.80;98.70
4509;DHT22;2267;48.816;9.230;2023-12-28T03:07:17;7.80;98.70
4509;DHT22;2267;48.816;9.230;2023-12-28T03:09:43;7.80;98.80
4509;DHT22;2267;48.816;9.230;2023-12-28T03:12:10;7.80;98.70
4509;DHT22;2267;48.816;9.230;2023-12-28T03:14:37;7.80;98.80
4509;DHT22;2267;48.816;9.230;2023-12-28T03:17:04;7.70;99.00
4509;DHT22;2267;48.816;9.230;2023-12-28T03:19:31;7.70;99.10
4509;DHT22;2267;48.816;9.230;2023-12-28T03:21:58;7.70;99.10
4509;DHT22;2267;48.816;9.230;2023-12-28T03:24:24;7.70;99.10
4509;DHT22;2267;48.816;9.230;2023-12-28T03:26:51;7.70;99.30
4509;DHT22;2267;48.816;9.230;2023-12-28T03:29:20;7.60;98.90
4509;DHT22;2267;48.816;9.230;2023-12-28T03:31:47;7.60;99.20
4509;DHT22;2267;48.816;9.230;2023-12-28T03:34:14;7.70;99.30
4509;DHT22;2267;48.816;9.230;2023-12-28T03:36:41;7.60;99.30
4509;DHT22;2267;48.816;9.230;2023-12-28T03:39:08;7.60;98.90
4509;DHT22;2267;48.816;9.230;2023-12-28T03:41:35;7.60;98.80
4509;DHT22;2267;48.816;9.230;2023-12-28T03:44:02;7.50;98.80
4509;DHT22;2267;48.816;9.230;2023-12-28T03:46:29;7.50;98.90
4509;DHT22;2267;48.816;9.230;2023-12-28T03:48:55;7.50;98.90
4509;DHT22;2267;48.816;9.230;2023-12-28T03:51:22;7.50;98.90
4509;DHT22;2267;48.816;9.230;2023-12-28T03:53:50;7.60;99.00
4509;DHT22;2267;48.816;9.230;2023-12-28T03:56:24;7.60;99.10
4509;DHT22;2267;48.816;9.230;2023-12-28T03:58:52;7.60;99.20
4509;DHT22;2267;48.816;9.230;2023-12-28T04:01:20;7.60;99.20
4509;DHT22;2267;48.816;9.230;2023-12-28T04:03:48;7.60;99.40
4509;DHT22;2267;48.816;9.230;2023-12-28T04:06:15;7.50;99.20
4509;DHT22;2267;48.816;9.230;2023-12-28T04:08:42;7.50;99.00
4509;DHT22;2267;48.816;9.230;2023-12-28T04:11:10;7.50;99.10
4509;DHT22;2267;48.816;9.230;2023-12-28T04:13:37;7.50;99.20
4509;DHT22;2267;48.816;9.230;2023-12-28T04:16:04;7.50;99.20
4509;DHT22;2267;48.816;9.230;2023-12-28T04:18:31;7.50;99.10
4509;DHT22;2267;48.816;9.230;2023-12-28T04:20:58;7.50;99.30
4509;DHT22;2267;48.816;9.230;2023-12-28T04:23:25;7.40;99.30
4509;DHT22;2267;48.816;9.230;2023-12-28T04:25:52;7.50;99.40
4509;DHT22;2267;48.816;9.230;2023-12-28T04:28:19;7.50;99.50
4509;DHT22;2267;48.816;9.230;2023-12-28T04:30:45;7.40;99.50
4509;DHT22;2267;48.816;9.230;2023-12-28T04:33:12;7.40;99.60
4509;DHT22;2267;48.816;9.230;2023-12-28T04:35:39;7.40;99.70
4509;DHT22;2267;48.816;9.230;2023-12-28T04:38:08;7.40;99.70
4509;DHT22;2267;48.816;9.230;2023-12-28T04:40:35;7.40;99.80
4509;DHT22;2267;48.816;9.230;2023-12-28T04:43:02;7.40;99.80
4509;DHT22;2267;48.816;9.230;2023-12-28T04:45:29;7.40;99.90
4509;DHT22;2267;48.816;9.230;2023-12-28T04:47:56;7.40;99.90
4509;DHT22;2267;48.816;9.230;2023-12-28T04:50:23;7.40;99.90
4509;DHT22;2267;48.816;9.230;2023-12-28T04:52:50;7.50;99.90
4509;DHT22;2267;48.816;9.230;2023-12-28T04:55:17;7.50;99.90
4509;DHT22;2267;48.816;9.230;2023-12-28T04:57:44;7.40;99.90
4509;DHT22;2267;48.816;9.230;2023-12-28T05:00:11;7.40;99.90
4509;DHT22;2267;48.816;9.230;2023-12-28T05:02:38;7.50;99.90
4509;DHT22;2267;48.816;9.230;2023-12-28T05:05:05;7.50;99.90
4509;DHT22;2267;48.816;9.230;2023-12-28T05:07:32;7.50;99.90
4509;DHT22;2267;48.816;9.230;2023-12-28T05:09:59;7.50;99.90
4509;DHT22;2267;48.816;9.230;2023-12-28T05:12:26;7.50;99.90
4509;DHT22;2267;48.816;9.230;2023-12-28T05:14:56;7.50;99.90
4509;DHT22;2267;48.816;9.230;2023-12-28T05:17:23;7.50;99.90
4509;DHT22;2267;48.816;9.230;2023-12-28T05:19:50;7.50;99.90
4509;DHT22;2267;48.816;9.230;2023-12-28T05:22:17;7.50;99.90
4509;DHT22;2267;48.816;9.230;2023-12-28T05:24:43;7.50;99.90
4509;DHT22;2267;48.816;9.230;2023-12-28T05:27:10;7.50;99.90
4509;DHT22;2267;48.816;9.230;2023-12-28T05:29:37;7.50;99.90
4509;DHT22;2267;48.816;9.230;2023-12-28T05:32:05;7.50;99.90
4509;DHT22;2267;48.816;9.230;2023-12-28T05:34:32;7.50;99.90
4509;DHT22;2267;48.816;9.230;2023-12-28T05:36:59;7.50;99.90
4509;DHT22;2267;48.816;9.230;2023-12-28T05:39:25;7.50;99.90
4509;DHT22;2267;48.816;9.230;2023-12-28T05:41:52;7.50;99.90
4509;DHT22;2267;48.816;9.230;2023-12-28T05:44:19;7.50;99.90
4509;DHT22;2267;48.816;9.230;2023-12-28T05:46:47;7.50;99.90
4509;DHT22;2267;48.816;9.230;2023-12-28T05:49:14;7.50;99.90
4509;DHT22;2267;48.816;9.230;2023-12-28T05:51:41;7.50;99.90
4509;DHT22;2267;48.816;9.230;2023-12-28T05:54:08;7.60;99.90
4509;DHT22;2267;48.816;9.230;2023-12-28T05:56:35;7.60;99.90
4509;DHT22;2267;48.816;9.230;2023-12-28T05:59:02;7.60;99.90
4509;DHT22;2267;48.816;9.230;2023-12-28T06:01:29;7.50;99.90
4509;DHT22;2267;48.816;9.230;2023-12-28T06:03:56;7.60;99.90
4509;DHT22;2267;48.816;9.230;2023-12-28T06:06:23;7.60;99.90
4509;DHT22;2267;48.816;9.230;2023-12-28T06:08:50;7.60;99.90
4509;DHT22;2267;48.816;9.230;2023-12-28T06:11:18;7.60;99.90
4509;DHT22;2267;48.816;9.230;2023-12-28T06:13:44;7.60;99.90
4509;DHT22;2267;48.816;9.230;2023-12-28T06:16:11;7.60;99.90
4509;DHT22;2267;48.816;9.230;2023-12-28T06:18:38;7.60;99.90
4509;DHT22;2267;48.816;9.230;2023-12-28T06:21:05;7.60;99.90
4509;DHT22;2267;48.816;9.230;2023-12-28T06:23:34;7.60;99.90
4509;DHT22;2267;48.816;9.230;2023-12-28T06:26:07;7.60;99.90
4509;DHT22;2267;48.816;9.230;2023-12-28T06:28:33;7.60;99.90
4509;DHT22;2267;48.816;9.230;2023-12-28T06:31:00;7.60;99.90
4509;DHT22;2267;48.816;9.230;2023-12-28T06:33:28;7.60;99.90
4509;DHT22;2267;48.816;9.230;2023-12-28T06:35:55;7.60;99.90
4509;DHT22;2267;48.816;9.230;2023-12-28T06:38:24;7.70;99.90
4509;DHT22;2267;48.816;9.230;2023-12-28T06:40:52;7.70;99.90
4509;DHT22;2267;48.816;9.230;2023-12-28T06:43:18;7.70;99.90
4509;DHT22;2267;48.816;9.230;2023-12-28T06:45:45;7.70;99.90
4509;DHT22;2267;48.816;9.230;2023-12-28T06:48:12;7.70;99.90
4509;DHT22;2267;48.816;9.230;2023-12-28T06:50:39;7.80;99.90
4509;DHT22;2267;48.816;9.230;2023-12-28T06:53:06;7.80;99.90
4509;DHT22;2267;48.816;9.230;2023-12-28T06:55:33;7.80;99.90
4509;DHT22;2267;48.816;9.230;2023-12-28T06:58:01;7.80;99.90
4509;DHT22;2267;48.816;9.230;2023-12-28T07:00:28;7.80;99.90
4509;DHT22;2267;48.816;9.230;2023-12-28T07:02:55;7.80;99.90
4509;DHT22;2267;48.816;9.230;2023-12-28T07:05:22;7.80;99.90
4509;DHT22;2267;48.816;9.230;2023-12-28T07:07:49;7.80;99.90
4509;DHT22;2267;48.816;9.230;2023-12-28T07:10:16;7.90;99.90
4509;DHT22;2267;48.816;9.230;2023-12-28T07:12:43;7.90;99.90
4509;DHT22;2267;48.816;9.230;2023-12-28T07:15:10;7.90;99.90
4509;DHT22;2267;48.816;9.230;2023-12-28T07:17:40;7.90;99.90
4509;DHT22;2267;48.816;9.230;2023-12-28T07:20:08;7.90;99.90
4509;DHT22;2267;48.816;9.230;2023-12-28T07:22:38;7.90;99.90
4509;DHT22;2267;48.816;9.230;2023-12-28T07:25:05;7.90;99.90
4509;DHT22;2267;48.816;9.230;2023-12-28T07:27:36;7.90;99.90
4509;DHT22;2267;48.816;9.230;2023-12-28T07:30:04;8.00;99.90
4509;DHT22;2267;48.816;9.230;2023-12-28T07:32:31;8.00;99.90
4509;DHT22;2267;48.816;9.230;2023-12-28T07:34:58;8.00;99.90
4509;DHT22;2267;48.816;9.230;2023-12-28T07:37:25;8.00;99.90
4509;DHT22;2267;48.816;9.230;2023-12-28T07:39:52;8.00;99.90
4509;DHT22;2267;48.816;9.230;2023-12-28T07:42:20;8.00;99.90
4509;DHT22;2267;48.816;9.230;2023-12-28T07:44:48;8.00;99.90
4509;DHT22;2267;48.816;9.230;2023-12-28T07:47:14;8.10;99.90
4509;DHT22;2267;48.816;9.230;2023-12-28T07:49:41;8.10;99.90
4509;DHT22;2267;48.816;9.230;2023-12-28T07:52:08;8.10;99.90
4509;DHT22;2267;48.816;9.230;2023-12-28T07:54:35;8.10;99.90
4509;DHT22;2267;48.816;9.230;2023-12-28T07:57:02;8.10;99.90
4509;DHT22;2267;48.816;9.230;2023-12-28T07:59:29;8.10;99.90
4509;DHT22;2267;48.816;9.230;2023-12-28T08:01:56;8.20;99.90
4509;DHT22;2267;48.816;9.230;2023-12-28T08:04:23;8.10;99.90
4509;DHT22;2267;48.816;9.230;2023-12-28T08:06:50;8.10;99.90
4509;DHT22;2267;48.816;9.230;2023-12-28T08:09:17;8.20;99.90
4509;DHT22;2267;48.816;9.230;2023-12-28T08:11:44;8.20;99.90
4509;DHT22;2267;48.816;9.230;2023-12-28T08:14:11;8.20;99.90
4509;DHT22;2267;48.816;9.230;2023-12-28T08:16:38;8.20;99.90
4509;DHT22;2267;48.816;9.230;2023-12-28T08:19:04;8.20;99.90
4509;DHT22;2267;48.816;9.230;2023-12-28T08:21:31;8.20;99.90
4509;DHT22;2267;48.816;9.230;2023-12-28T08:23:58;8.30;99.90
4509;DHT22;2267;48.816;9.230;2023-12-28T08:26:25;8.30;99.90
4509;DHT22;2267;48.816;9.230;2023-12-28T08:28:52;8.30;99.90
4509;DHT22;2267;48.816;9.230;2023-12-28T08:31:19;8.40;99.90
4509;DHT22;2267;48.816;9.230;2023-12-28T08:33:47;8.40;99.90
4509;DHT22;2267;48.816;9.230;2023-12-28T08:36:13;8.40;99.90
4509;DHT22;2267;48.816;9.230;2023-12-28T08:38:43;8.40;99.90
4509;DHT22;2267;48.816;9.230;2023-12-28T08:41:22;8.40;99.90
4509;DHT22;2267;48.816;9.230;2023-12-28T08:43:53;8.40;99.90
4509;DHT22;2267;48.816;9.230;2023-12-28T08:46:23;8.40;99.90
4509;DHT22;2267;48.816;9.230;2023-12-28T08:48:51;8.40;99.90
4509;DHT22;2267;48.816;9.230;2023-12-28T08:51:18;8.50;99.90
4509;DHT22;2267;48.816;9.230;2023-12-28T08:53:46;8.50;99.90
4509;DHT22;2267;48.816;9.230;2023-12-28T08:58:40;8.50;99.90
4509;DHT22;2267;48.816;9.230;2023-12-28T09:01:07;8.50;99.90
4509;DHT22;2267;48.816;9.230;2023-12-28T09:03:34;8.50;99.90
4509;DHT22;2267;48.816;9.230;2023-12-28T09:06:01;8.50;99.90
4509;DHT22;2267;48.816;9.230;2023-12-28T09:08:28;8.60;99.90
4509;DHT22;2267;48.816;9.230;2023-12-28T09:10:55;8.60;99.90
4509;DHT22;2267;48.816;9.230;2023-12-28T09:13:22;8.60;99.90
4509;DHT22;2267;48.816;9.230;2023-12-28T09:15:49;8.60;99.90
4509;DHT22;2267;48.816;9.230;2023-12-28T09:18:17;8.60;99.90
4509;DHT22;2267;48.816;9.230;2023-12-28T09:20:44;8.70;99.90
4509;DHT22;2267;48.816;9.230;2023-12-28T09:23:11;8.70;99.90
4509;DHT22;2267;48.816;9.230;2023-12-28T09:25:39;8.70;99.90
4509;DHT22;2267;48.816;9.230;2023-12-28T09:28:06;8.70;99.90
4509;DHT22;2267;48.816;9.230;2023-12-28T09:30:33;8.70;99.90
4509;DHT22;2267;48.816;9.230;2023-12-28T09:33:00;8.70;99.90
4509;DHT22;2267;48.816;9.230;2023-12-28T09:35:27;8.80;99.90
4509;DHT22;2267;48.816;9.230;2023-12-28T09:37:54;8.80;99.90
4509;DHT22;2267;48.816;9.230;2023-12-28T09:40:24;8.80;99.90
4509;DHT22;2267;48.816;9.230;2023-12-28T09:43:03;8.80;99.90
4509;DHT22;2267;48.816;9.230;2023-12-28T09:45:34;8.80;99.90
4509;DHT22;2267;48.816;9.230;2023-12-28T09:48:01;8.80;99.90
4509;DHT22;2267;48.816;9.230;2023-12-28T09:50:29;8.90;99.90
4509;DHT22;2267;48.816;9.230;2023-12-28T09:52:56;8.90;99.90
4509;DHT22;2267;48.816;9.230;2023-12-28T09:55:24;8.90;99.90
4509;DHT22;2267;48.816;9.230;2023-12-28T09:57:52;8.90;99.90
4509;DHT22;2267;48.816;9.230;2023-12-28T10:00:19;9.00;99.90
4509;DHT22;2267;48.816;9.230;2023-12-28T10:02:46;9.00;99.90
4509;DHT22;2267;48.816;9.230;2023-12-28T10:05:14;9.00;99.90
4509;DHT22;2267;48.816;9.230;2023-12-28T10:07:44;9.00;99.90
4509;DHT22;2267;48.816;9.230;2023-12-28T10:10:16;9.10;99.90
4509;DHT22;2267;48.816;9.230;2023-12-28T10:12:46;9.10;99.90
4509;DHT22;2267;48.816;9.230;2023-12-28T10:15:13;9.10;99.90
4509;DHT22;2267;48.816;9.230;2023-12-28T10:17:40;9.10;99.90
4509;DHT22;2267;48.816;9.230;2023-12-28T10:20:07;9.20;99.90
4509;DHT22;2267;48.816;9.230;2023-12-28T10:22:37;9.20;99.90
4509;DHT22;2267;48.816;9.230;2023-12-28T10:25:04;9.20;99.90
4509;DHT22;2267;48.816;9.230;2023-12-28T10:27:31;9.20;99.90
4509;DHT22;2267;48.816;9.230;2023-12-28T10:29:58;9.20;99.90
4509;DHT22;2267;48.816;9.230;2023-12-28T10:32:26;9.20;99.90
4509;DHT22;2267;48.816;9.230;2023-12-28T10:34:54;9.20;99.90
4509;DHT22;2267;48.816;9.230;2023-12-28T10:37:21;9.30;99.90
4509;DHT22;2267;48.816;9.230;2023-12-28T10:39:49;9.20;99.90
4509;DHT22;2267;48.816;9.230;2023-12-28T10:42:28;9.20;99.90
4509;DHT22;2267;48.816;9.230;2023-12-28T10:45:10;9.20;99.90
4509;DHT22;2267;48.816;9.230;2023-12-28T10:47:39;9.30;99.90
4509;DHT22;2267;48.816;9.230;2023-12-28T10:50:11;9.30;99.90
4509;DHT22;2267;48.816;9.230;2023-12-28T10:52:39;9.30;99.90
4509;DHT22;2267;48.816;9.230;2023-12-28T11:00:33;9.40;99.90
4509;DHT22;2267;48.816;9.230;2023-12-28T11:03:03;9.40;99.90
4509;DHT22;2267;48.816;9.230;2023-12-28T11:05:33;9.40;99.90
4509;DHT22;2267;48.816;9.230;2023-12-28T11:08:02;9.40;99.90
4509;DHT22;2267;48.816;9.230;2023-12-28T11:10:32;9.40;99.90
4509;DHT22;2267;48.816;9.230;2023-12-28T11:13:00;9.40;99.90
4509;DHT22;2267;48.816;9.230;2023-12-28T11:15:28;9.50;99.90
4509;DHT22;2267;48.816;9.230;2023-12-28T11:17:56;9.50;99.90
4509;DHT22;2267;48.816;9.230;2023-12-28T11:20:23;9.50;99.90
4509;DHT22;2267;48.816;9.230;2023-12-28T11:22:50;9.50;99.90
4509;DHT22;2267;48.816;9.230;2023-12-28T11:25:18;9.50;99.90
4509;DHT22;2267;48.816;9.230;2023-12-28T11:27:46;9.50;99.90
4509;DHT22;2267;48.816;9.230;2023-12-28T11:30:13;9.50;99.90
4509;DHT22;2267;48.816;9.230;2023-12-28T11:32:41;9.50;99.90
4509;DHT22;2267;48.816;9.230;2023-12-28T11:35:12;9.50;99.90
4509;DHT22;2267;48.816;9.230;2023-12-28T11:37:48;9.50;99.90
4509;DHT22;2267;48.816;9.230;2023-12-28T11:40:18;9.50;99.90
4509;DHT22;2267;48.816;9.230;2023-12-28T11:42:53;9.50;99.90
4509;DHT22;2267;48.816;9.230;2023-12-28T11:45:22;9.60;99.90
4509;DHT22;2267;48.816;9.230;2023-12-28T11:48:02;9.60;99.90
4509;DHT22;2267;48.816;9.230;2023-12-28T11:50:31;9.60;99.90
4509;DHT22;2267;48.816;9.230;2023-12-28T11:52:58;9.60;99.90
4509;DHT22;2267;48.816;9.230;2023-12-28T11:55:26;9.60;99.90
4509;DHT22;2267;48.816;9.230;2023-12-28T11:57:53;9.60;99.90
4509;DHT22;2267;48.816;9.230;2023-12-28T12:00:20;9.70;99.90
4509;DHT22;2267;48.816;9.230;2023-12-28T12:02:48;9.70;99.90
4509;DHT22;2267;48.816;9.230;2023-12-28T12:05:15;9.70;99.90
4509;DHT22;2267;48.816;9.230;2023-12-28T12:07:42;9.70;99.90
4509;DHT22;2267;48.816;9.230;2023-12-28T12:10:14;9.70;99.90
4509;DHT22;2267;48.816;9.230;2023-12-28T12:12:42;9.80;99.90
4509;DHT22;2267;48.816;9.230;2023-12-28T12:15:09;9.80;99.90
4509;DHT22;2267;48.816;9.230;2023-12-28T12:17:36;9.80;99.90
4509;DHT22;2267;48.816;9.230;2023-12-28T12:20:03;9.90;99.90
4509;DHT22;2267;48.816;9.230;2023-12-28T12:22:32;9.90;99.90
4509;DHT22;2267;48.816;9.230;2023-12-28T12:25:00;9.90;99.90
4509;DHT22;2267;48.816;9.230;2023-12-28T12:27:30;9.90;99.90
4509;DHT22;2267;48.816;9.230;2023-12-28T12:29:57;10.00;99.90
4509;DHT22;2267;48.816;9.230;2023-12-28T12:32:24;10.00;99.90
4509;DHT22;2267;48.816;9.230;2023-12-28T12:34:51;10.00;99.90
4509;DHT22;2267;48.816;9.230;2023-12-28T12:37:18;10.00;99.90
4509;DHT22;2267;48.816;9.230;2023-12-28T12:39:45;10.10;99.90
4509;DHT22;2267;48.816;9.230;2023-12-28T12:42:13;10.10;99.90
4509;DHT22;2267;48.816;9.230;2023-12-28T12:44:40;10.10;99.90
4509;DHT22;2267;48.816;9.230;2023-12-28T12:47:07;10.20;99.90
4509;DHT22;2267;48.816;9.230;2023-12-28T12:49:34;10.20;99.90
4509;DHT22;2267;48.816;9.230;2023-12-28T12:52:01;10.20;99.90
4509;DHT22;2267;48.816;9.230;2023-12-28T12:54:31;10.30;99.90
4509;DHT22;2267;48.816;9.230;2023-12-28T12:56:58;10.30;99.90
4509;DHT22;2267;48.816;9.230;2023-12-28T12:59:25;10.30;99.90
4509;DHT22;2267;48.816;9.230;2023-12-28T13:01:53;10.30;99.90
4509;DHT22;2267;48.816;9.230;2023-12-28T13:04:20;10.30;99.90
4509;DHT22;2267;48.816;9.230;2023-12-28T13:06:48;10.30;99.90
4509;DHT22;2267;48.816;9.230;2023-12-28T13:09:16;10.40;99.90
4509;DHT22;2267;48.816;9.230;2023-12-28T13:11:43;10.40;99.90
4509;DHT22;2267;48.816;9.230;2023-12-28T13:14:10;10.40;99.90
4509;DHT22;2267;48.816;9.230;2023-12-28T13:16:37;10.50;99.90
4509;DHT22;2267;48.816;9.230;2023-12-28T13:19:03;10.50;99.90
4509;DHT22;2267;48.816;9.230;2023-12-28T13:21:30;10.50;99.90
4509;DHT22;2267;48.816;9.230;2023-12-28T13:23:57;10.60;99.90
4509;DHT22;2267;48.816;9.230;2023-12-28T13:26:26;10.60;99.90
4509;DHT22;2267;48.816;9.230;2023-12-28T13:28:53;10.60;99.90
4509;DHT22;2267;48.816;9.230;2023-12-28T13:31:20;10.60;99.90
4509;DHT22;2267;48.816;9.230;2023-12-28T13:33:47;10.60;99.90
4509;DHT22;2267;48.816;9.230;2023-12-28T13:36:14;10.60;99.90
4509;DHT22;2267;48.816;9.230;2023-12-28T13:38:41;10.60;99.90
4509;DHT22;2267;48.816;9.230;2023-12-28T13:41:08;10.60;99.90
4509;DHT22;2267;48.816;9.230;2023-12-28T13:43:35;10.60;99.90
4509;DHT22;2267;48.816;9.230;2023-12-28T13:46:02;10.60;99.90
4509;DHT22;2267;48.816;9.230;2023-12-28T13:48:31;10.60;99.90
4509;DHT22;2267;48.816;9.230;2023-12-28T13:50:58;10.70;99.90
4509;DHT22;2267;48.816;9.230;2023-12-28T13:53:25;10.70;99.90
4509;DHT22;2267;48.816;9.230;2023-12-28T13:55:51;10.70;99.90
4509;DHT22;2267;48.816;9.230;2023-12-28T13:58:18;10.70;99.90
4509;DHT22;2267;48.816;9.230;2023-12-28T14:00:45;10.70;99.90
4509;DHT22;2267;48.816;9.230;2023-12-28T14:03:12;10.70;99.90
4509;DHT22;2267;48.816;9.230;2023-12-28T14:05:39;10.70;99.90
4509;DHT22;2267;48.816;9.230;2023-12-28T14:08:09;10.70;99.90
4509;DHT22;2267;48.816;9.230;2023-12-28T14:10:36;10.70;99.90
4509;DHT22;2267;48.816;9.230;2023-12-28T14:13:05;10.70;99.90
4509;DHT22;2267;48.816;9.230;2023-12-28T14:15:32;10.70;99.90
4509;DHT22;2267;48.816;9.230;2023-12-28T14:17:59;10.70;99.90
4509;DHT22;2267;48.816;9.230;2023-12-28T14:20:26;10.70;99.90
4509;DHT22;2267;48.816;9.230;2023-12-28T14:22:54;10.70;99.90
4509;DHT22;2267;48.816;9.230;2023-12-28T14:25:21;10.70;99.90
4509;DHT22;2267;48.816;9.230;2023-12-28T14:27:49;10.80;99.90
4509;DHT22;2267;48.816;9.230;2023-12-28T14:30:16;10.80;99.90
4509;DHT22;2267;48.816;9.230;2023-12-28T14:32:44;10.80;99.90
4509;DHT22;2267;48.816;9.230;2023-12-28T14:35:11;10.80;99.90
4509;DHT22;2267;48.816;9.230;2023-12-28T14:37:38;10.80;99.90
4509;DHT22;2267;48.816;9.230;2023-12-28T14:40:05;10.90;99.90
4509;DHT22;2267;48.816;9.230;2023-12-28T14:42:33;10.80;99.90
4509;DHT22;2267;48.816;9.230;2023-12-28T14:45:01;10.90;99.90
4509;DHT22;2267;48.816;9.230;2023-12-28T14:47:28;10.90;99.90
4509;DHT22;2267;48.816;9.230;2023-12-28T14:49:55;10.90;99.90
4509;DHT22;2267;48.816;9.230;2023-12-28T14:52:25;10.90;99.90
4509;DHT22;2267;48.816;9.230;2023-12-28T14:54:52;10.90;99.90
4509;DHT22;2267;48.816;9.230;2023-12-28T14:57:22;10.90;99.90
4509;DHT22;2267;48.816;9.230;2023-12-28T14:59:49;10.90;99.90
4509;DHT22;2267;48.816;9.230;2023-12-28T15:02:16;10.90;99.90
4509;DHT22;2267;48.816;9.230;2023-12-28T15:04:43;10.90;99.90
4509;DHT22;2267;48.816;9.230;2023-12-28T15:07:10;10.90;99.90
4509;DHT22;2267;48.816;9.230;2023-12-28T15:09:37;10.90;99.90
4509;DHT22;2267;48.816;9.230;2023-12-28T15:12:04;10.90;99.90
4509;DHT22;2267;48.816;9.230;2023-12-28T15:14:32;10.90;99.90
4509;DHT22;2267;48.816;9.230;2023-12-28T15:16:59;10.90;99.90
4509;DHT22;2267;48.816;9.230;2023-12-28T15:19:26;11.00;99.90
4509;DHT22;2267;48.816;9.230;2023-12-28T15:21:53;10.90;99.90
4509;DHT22;2267;48.816;9.230;2023-12-28T15:24:20;11.00;99.90
4509;DHT22;2267;48.816;9.230;2023-12-28T15:26:48;11.00;99.90
4509;DHT22;2267;48.816;9.230;2023-12-28T15:29:15;11.00;99.90
4509;DHT22;2267;48.816;9.230;2023-12-28T15:31:42;11.00;99.90
4509;DHT22;2267;48.816;9.230;2023-12-28T15:34:09;10.90;99.90
4509;DHT22;2267;48.816;9.230;2023-12-28T15:36:36;11.00;99.90
4509;DHT22;2267;48.816;9.230;2023-12-28T15:39:03;11.00;99.90
4509;DHT22;2267;48.816;9.230;2023-12-28T15:41:32;11.00;99.90
4509;DHT22;2267;48.816;9.230;2023-12-28T15:43:59;11.00;99.90
4509;DHT22;2267;48.816;9.230;2023-12-28T15:46:26;11.00;99.90
4509;DHT22;2267;48.816;9.230;2023-12-28T15:48:53;11.00;99.90
4509;DHT22;2267;48.816;9.230;2023-12-28T15:51:20;10.90;99.90
4509;DHT22;2267;48.816;9.230;2023-12-28T15:53:47;11.00;99.90
4509;DHT22;2267;48.816;9.230;2023-12-28T15:56:14;11.00;99.90
4509;DHT22;2267;48.816;9.230;2023-12-28T15:58:45;11.00;99.90
4509;DHT22;2267;48.816;9.230;2023-12-28T16:01:12;11.00;99.90
4509;DHT22;2267;48.816;9.230;2023-12-28T16:03:39;11.00;99.90
4509;DHT22;2267;48.816;9.230;2023-12-28T16:06:09;11.00;99.90
4509;DHT22;2267;48.816;9.230;2023-12-28T16:08:37;11.00;99.90
4509;DHT22;2267;48.816;9.230;2023-12-28T16:11:05;11.00;99.90
4509;DHT22;2267;48.816;9.230;2023-12-28T16:13:33;11.00;99.90
4509;DHT22;2267;48.816;9.230;2023-12-28T16:16:00;11.00;99.90
4509;DHT22;2267;48.816;9.230;2023-12-28T16:18:28;11.00;99.90
4509;DHT22;2267;48.816;9.230;2023-12-28T16:20:56;11.00;99.90
4509;DHT22;2267;48.816;9.230;2023-12-28T16:23:23;11.00;99.90
4509;DHT22;2267;48.816;9.230;2023-12-28T16:25:50;11.00;99.90
4509;DHT22;2267;48.816;9.230;2023-12-28T16:28:17;11.00;99.90